KHOT

Memorial Field Airport

Hot Springs, Arkansas, USA
METAR KHOT 221453Z AUTO 00000KT 10SM FEW007 FEW070 FEW120 24/22 A3007 RMK AO2 LTG DSNT N SLP176 T02390222 53005
Observed Flight Rules
May-22 @ 14:53 UTC (52 minutes ago) Visual Flight Rules
Visibility Clouds
10 miles
  • Few at 700' AGL
  • Few at 7,000' AGL
  • Few at 12,000' AGL
Temperatures Readings
Current 24°C / 75°F
Dewpoint 22°C / 72°F
Humidity 89%
Altimeter 30.07" Hg
Pressure 1017.6 hPa
Elevation 162
METAR KHOT 221453Z AUTO 00000KT 10SM FEW007 FEW070 FEW120 24/22 A3007 RMK AO2 LTG DSNT N SLP176 T02390222 53005
Observed Flight Rules
May-22 @ 14:53 UTC
(52 minutes ago)
VFR
Clouds
  • Few at 700' AGL
  • Few at 7,000' AGL
  • Few at 12,000' AGL
Temperature Dewpoint
24°C / 75°F 22°C / 72°F
Humidity Altimeter Pressure
89% 30.07" Hg 1017.6 hPa